Reno, NV

9:47 AM PDT on July 25, 2017 (GMT -0700)
UNR Campus, LMR Roof | | Change Station

Elev 4570 ft 39.54 °N, 119.81 °W | Updated 1 minute ago

Scattered Clouds
Scattered Clouds
78.6 °F
Feels Like 79 °F
N
4.9
Wind Variable Wind from North
Gusts 0.0 mph

Today
High -- | Low -- °F
--% Chance of Precip.
Yesterday
High -- | Low -- °F
Precip. -- in
Pressure 29.94 in
Visibility 10.0 miles
Clouds Few 4000 ft
Scattered Clouds 8500 ft
Scattered Clouds 14000 ft
Heat Index 79 °F
Dew Point 52 °F
Humidity 39%
Rainfall 0.00 in
Snow Depth Not available.
5:52 AM 8:18 PM
Waxing Crescent, 7% visible
METAR KRNO 251555Z 00000KT 10SM FEW040 SCT085 SCT140 22/11 A3010 RMK AO2 SLP136 FU FEW040 FU ALF ALQDS T02220111
Pressure 29.94 in
Visibility 10.0 miles
Clouds Few 4000 ft
Scattered Clouds 8500 ft
Scattered Clouds 14000 ft
Heat Index 79 °F
Dew Point 52 °F
Humidity 39%
Rainfall 0.00 in
Snow Depth Not available.
5:52 AM 8:18 PM
Waxing Crescent, 7% visible
METAR KRNO 251555Z 00000KT 10SM FEW040 SCT085 SCT140 22/11 A3010 RMK AO2 SLP136 FU FEW040 FU ALF ALQDS T02220111

Get Severe Weather Alerts

Thanks for signing up!

Be on the lookout for a verification email in your inbox.

You'll start receiving the daily forecast at 6 AM.

×

10-Day Weather Forecast

Almanac

Astronomy

Jul. 25, 2017 Rise Set
Actual Time
Civil Twilight
Nautical Twilight
Astronomical Twilight
Moon
Length of Visible Light
Length of Day
Tomorrow will be .
, % of the Moon is Illuminated

Today's Extremes

State Highs State Lows

Community

WunderPhotos

Category 6

Welcome to Category 6. This is the collective home for Weather Underground's featured writeups by Dr. Jeff Masters (right), Bob Henson (left), Chris Burt, and other regular contributors.

Nearby

Air Quality

  Air Quality AQ Index Pollutant
Not available.

Snow Depth

Station Depth Elevation

Earthquake Activity

City Distance Mag. Time & Date
Minimum magnitude displayed is 2.5.

Coastal Water Temperatures

Place Temperature

Stations

Nearby Weather Stations

Station Location Temp. Windchill Dew Point Humidity Wind Precip. Elev Updated Type
                   

Watches & Warnings

There are currently no watches in effect.